SJX26 RCTP-KPHX
Flight info
| Callsign | SJX26 |
|---|---|
| Flight time | N/A |
| Altitude | 39000 |
| Route | MOLKA1C MOLKA M750 MUKEP Y891 OVSUN/N0489F360 Y893 IGMIS/N0489F350 Y57 LIGNI/N0486F370 Y57 POROT Y809 IDLAN Y812 ADNAP OTR5 KALNA DCT 42N160E 43N170E 43N180E/N0477F390 41N170W 40N160W 39N150W 38N140W 38N130W/N0476F410 DCT ALLBE DCT SUPER DCT PMD J65 BLH HYDRR1 |
| Aircraft | A359/H-V/N |
Departure
| Time | 2026-05-08 01:15 |
|---|---|
| Airport | Taiwan Taoyuan International Airport (RCTP) |
Arrival
| Time | N/A |
|---|---|
| Airport | Phoenix Sky Harbor International Airport (KPHX) |
| Time | Latitude | Longitude | Altitude | Speed | Heading |
|---|---|---|---|---|---|
| 2026-05-08 00:50 | 25.08083 | 121.23272 | 107 ft | 0 kts | 139° |
| 2026-05-08 01:05 | 25.08095 | 121.23260 | 106 ft | 4 kts | 139° |
| 2026-05-08 01:06 | 25.08116 | 121.23241 | 105 ft | 4 kts | 139° |
| 2026-05-08 01:06 | 25.08136 | 121.23221 | 104 ft | 4 kts | 139° |
| 2026-05-08 01:06 | 25.08155 | 121.23204 | 106 ft | 4 kts | 149° |
| 2026-05-08 01:06 | 25.08169 | 121.23195 | 104 ft | 4 kts | 194° |
| 2026-05-08 01:07 | 25.08177 | 121.23198 | 104 ft | 4 kts | 246° |
| 2026-05-08 01:07 | 25.08184 | 121.23217 | 107 ft | 4 kts | 246° |
| 2026-05-08 01:07 | 25.08195 | 121.23240 | 105 ft | 2 kts | 230° |
| 2026-05-08 01:07 | 25.08196 | 121.23241 | 105 ft | 1 kts | 230° |
| 2026-05-08 01:09 | 25.08193 | 121.23239 | 105 ft | 4 kts | 229° |
| 2026-05-08 01:09 | 25.08159 | 121.23195 | 107 ft | 9 kts | 229° |
| 2026-05-08 01:10 | 25.08112 | 121.23134 | 107 ft | 14 kts | 229° |
| 2026-05-08 01:10 | 25.08027 | 121.23026 | 107 ft | 22 kts | 229° |
| 2026-05-08 01:10 | 25.07924 | 121.22892 | 107 ft | 23 kts | 229° |
| 2026-05-08 01:10 | 25.07821 | 121.22765 | 107 ft | 21 kts | 225° |
| 2026-05-08 01:11 | 25.07729 | 121.22645 | 107 ft | 20 kts | 231° |
| 2026-05-08 01:11 | 25.07641 | 121.22531 | 107 ft | 20 kts | 230° |
| 2026-05-08 01:11 | 25.07552 | 121.22416 | 107 ft | 20 kts | 229° |
| 2026-05-08 01:11 | 25.07463 | 121.22302 | 107 ft | 20 kts | 229° |
| 2026-05-08 01:12 | 25.07373 | 121.22186 | 107 ft | 20 kts | 229° |
| 2026-05-08 01:12 | 25.07281 | 121.22071 | 105 ft | 22 kts | 229° |
| 2026-05-08 01:12 | 25.07161 | 121.21919 | 107 ft | 28 kts | 229° |
| 2026-05-08 01:12 | 25.07114 | 121.21817 | 107 ft | 10 kts | 284° |
| 2026-05-08 01:13 | 25.07174 | 121.21740 | 107 ft | 12 kts | 318° |
| 2026-05-08 01:13 | 25.07203 | 121.21711 | 107 ft | 5 kts | 320° |
| 2026-05-08 01:13 | 25.07234 | 121.21683 | 108 ft | 9 kts | 320° |
| 2026-05-08 01:13 | 25.07278 | 121.21642 | 108 ft | 8 kts | 321° |
| 2026-05-08 01:14 | 25.07315 | 121.21640 | 108 ft | 6 kts | 24° |
| 2026-05-08 01:14 | 25.07345 | 121.21669 | 107 ft | 0 kts | 48° |
| 2026-05-08 01:14 | 25.07387 | 121.21720 | 105 ft | 32 kts | 48° |
| 2026-05-08 01:14 | 25.07673 | 121.22085 | 108 ft | 92 kts | 49° |
| 2026-05-08 01:15 | 25.08208 | 121.22766 | 106 ft | 142 kts | 49° |
| 2026-05-08 01:15 | 25.08946 | 121.23704 | 317 ft | 169 kts | 45° |
| 2026-05-08 01:15 | 25.09736 | 121.24666 | 911 ft | 171 kts | 45° |
| 2026-05-08 01:15 | 25.10563 | 121.25651 | 1449 ft | 181 kts | 46° |
| 2026-05-08 01:16 | 25.11438 | 121.26772 | 1847 ft | 205 kts | 49° |
| 2026-05-08 01:16 | 25.12411 | 121.28052 | 2287 ft | 233 kts | 49° |
| 2026-05-08 01:16 | 25.13492 | 121.29475 | 2952 ft | 249 kts | 50° |
| 2026-05-08 01:16 | 25.14636 | 121.30981 | 3672 ft | 261 kts | 50° |
| 2026-05-08 01:17 | 25.15824 | 121.32533 | 4362 ft | 268 kts | 50° |
| 2026-05-08 01:17 | 25.17049 | 121.34127 | 4953 ft | 276 kts | 50° |
| 2026-05-08 01:17 | 25.18304 | 121.35760 | 5563 ft | 281 kts | 50° |
| 2026-05-08 01:17 | 25.19581 | 121.37419 | 6211 ft | 286 kts | 50° |
| 2026-05-08 01:18 | 25.20884 | 121.39113 | 6805 ft | 292 kts | 50° |
| 2026-05-08 01:18 | 25.22205 | 121.40832 | 7380 ft | 296 kts | 49° |
| 2026-05-08 01:18 | 25.23546 | 121.42578 | 7930 ft | 301 kts | 49° |
| 2026-05-08 01:18 | 25.24906 | 121.44348 | 8491 ft | 303 kts | 49° |
| 2026-05-08 01:19 | 25.26276 | 121.46131 | 9077 ft | 306 kts | 49° |
| 2026-05-08 01:19 | 25.27579 | 121.48016 | 9523 ft | 312 kts | 57° |
| 2026-05-08 01:19 | 25.28350 | 121.50260 | 10011 ft | 313 kts | 77° |
| 2026-05-08 01:19 | 25.28798 | 121.52641 | 10472 ft | 323 kts | 79° |
| 2026-05-08 01:20 | 25.29249 | 121.55128 | 10919 ft | 338 kts | 79° |
| 2026-05-08 01:20 | 25.29733 | 121.57722 | 11312 ft | 351 kts | 78° |
| 2026-05-08 01:20 | 25.30245 | 121.60401 | 11806 ft | 363 kts | 78° |
| 2026-05-08 01:20 | 25.30783 | 121.63177 | 12073 ft | 375 kts | 78° |
| 2026-05-08 01:21 | 25.31339 | 121.66034 | 12273 ft | 385 kts | 78° |
| 2026-05-08 01:21 | 25.31909 | 121.68958 | 12446 ft | 394 kts | 78° |
| 2026-05-08 01:21 | 25.32491 | 121.71945 | 12597 ft | 402 kts | 78° |
| 2026-05-08 01:21 | 25.33085 | 121.74995 | 12803 ft | 408 kts | 78° |
| 2026-05-08 01:22 | 25.33683 | 121.78066 | 13096 ft | 411 kts | 78° |
| 2026-05-08 01:22 | 25.34286 | 121.81170 | 13407 ft | 414 kts | 78° |
| 2026-05-08 01:22 | 25.34890 | 121.84284 | 13716 ft | 416 kts | 78° |
| 2026-05-08 01:22 | 25.35500 | 121.87429 | 14002 ft | 419 kts | 78° |
| 2026-05-08 01:23 | 25.36112 | 121.90587 | 14301 ft | 421 kts | 78° |
| 2026-05-08 01:23 | 25.36725 | 121.93757 | 14626 ft | 422 kts | 78° |
| 2026-05-08 01:23 | 25.37338 | 121.96935 | 14928 ft | 424 kts | 78° |
| 2026-05-08 01:23 | 25.37948 | 122.00091 | 15230 ft | 425 kts | 78° |
| 2026-05-08 01:24 | 25.38566 | 122.03298 | 15522 ft | 428 kts | 78° |
| 2026-05-08 01:24 | 25.39186 | 122.06521 | 15830 ft | 429 kts | 78° |
| 2026-05-08 01:24 | 25.39809 | 122.09759 | 16123 ft | 431 kts | 78° |
| 2026-05-08 01:24 | 25.40432 | 122.13008 | 16409 ft | 433 kts | 78° |
| 2026-05-08 01:25 | 25.41058 | 122.16273 | 16722 ft | 434 kts | 78° |
| 2026-05-08 01:25 | 25.41699 | 122.19554 | 16988 ft | 437 kts | 77° |
| 2026-05-08 01:25 | 25.42564 | 122.22780 | 17253 ft | 439 kts | 70° |
| 2026-05-08 01:25 | 25.43620 | 122.25949 | 17551 ft | 440 kts | 69° |
| 2026-05-08 01:26 | 25.44706 | 122.29122 | 17823 ft | 442 kts | 69° |
| 2026-05-08 01:26 | 25.45791 | 122.32313 | 18073 ft | 444 kts | 69° |
| 2026-05-08 01:26 | 25.46877 | 122.35526 | 18351 ft | 446 kts | 69° |
| 2026-05-08 01:26 | 25.47961 | 122.38747 | 18586 ft | 448 kts | 69° |
| 2026-05-08 01:27 | 25.49049 | 122.41988 | 18846 ft | 450 kts | 69° |
| 2026-05-08 01:27 | 25.50137 | 122.45233 | 19095 ft | 451 kts | 69° |
| 2026-05-08 01:27 | 25.51229 | 122.48492 | 19328 ft | 452 kts | 69° |
| 2026-05-08 01:27 | 25.52324 | 122.51764 | 19565 ft | 454 kts | 69° |
| 2026-05-08 01:28 | 25.53421 | 122.55046 | 19798 ft | 455 kts | 69° |
| 2026-05-08 01:28 | 25.54519 | 122.58335 | 20034 ft | 456 kts | 69° |
| 2026-05-08 01:28 | 25.55621 | 122.61638 | 20260 ft | 458 kts | 69° |
| 2026-05-08 01:28 | 25.56725 | 122.64949 | 20490 ft | 459 kts | 69° |
| 2026-05-08 01:29 | 25.57833 | 122.68275 | 20712 ft | 460 kts | 69° |
| 2026-05-08 01:29 | 25.58928 | 122.71565 | 20926 ft | 462 kts | 69° |
| 2026-05-08 01:29 | 25.60040 | 122.74912 | 21142 ft | 463 kts | 69° |
| 2026-05-08 01:29 | 25.61153 | 122.78260 | 21358 ft | 464 kts | 69° |
| 2026-05-08 01:30 | 25.62270 | 122.81626 | 21555 ft | 466 kts | 69° |
| 2026-05-08 01:30 | 25.63389 | 122.85001 | 21770 ft | 467 kts | 69° |
| 2026-05-08 01:30 | 25.64515 | 122.88395 | 21962 ft | 469 kts | 68° |
| 2026-05-08 01:30 | 25.65655 | 122.91784 | 22163 ft | 470 kts | 68° |
| 2026-05-08 01:31 | 25.66807 | 122.95181 | 22360 ft | 471 kts | 68° |
| 2026-05-08 01:31 | 25.67959 | 122.98587 | 22545 ft | 473 kts | 68° |
| 2026-05-08 01:31 | 25.69114 | 123.02009 | 22731 ft | 474 kts | 68° |
| 2026-05-08 01:31 | 25.70268 | 123.05438 | 22924 ft | 476 kts | 68° |
| 2026-05-08 01:32 | 25.71427 | 123.08884 | 23110 ft | 477 kts | 68° |
| 2026-05-08 01:32 | 25.72587 | 123.12339 | 23301 ft | 479 kts | 68° |
| 2026-05-08 01:32 | 25.73752 | 123.15809 | 23485 ft | 480 kts | 68° |
| 2026-05-08 01:32 | 25.74916 | 123.19282 | 23690 ft | 481 kts | 68° |
| 2026-05-08 01:33 | 25.76086 | 123.22773 | 23973 ft | 483 kts | 68° |
| 2026-05-08 01:33 | 25.77263 | 123.26279 | 24188 ft | 486 kts | 68° |
| 2026-05-08 01:33 | 25.78439 | 123.29803 | 24306 ft | 488 kts | 68° |
| 2026-05-08 01:33 | 25.79619 | 123.33340 | 24444 ft | 489 kts | 68° |
| 2026-05-08 01:34 | 25.80802 | 123.36884 | 24595 ft | 490 kts | 68° |
| 2026-05-08 01:34 | 25.81988 | 123.40445 | 24721 ft | 492 kts | 68° |
| 2026-05-08 01:34 | 25.83175 | 123.44011 | 24866 ft | 493 kts | 68° |
| 2026-05-08 01:34 | 25.84364 | 123.47583 | 25011 ft | 494 kts | 69° |
| 2026-05-08 01:35 | 25.85575 | 123.51163 | 25194 ft | 495 kts | 67° |
| 2026-05-08 01:35 | 25.87073 | 123.54601 | 25370 ft | 495 kts | 58° |
| 2026-05-08 01:35 | 25.89045 | 123.57654 | 25481 ft | 494 kts | 47° |
| 2026-05-08 01:35 | 25.91542 | 123.60332 | 25613 ft | 491 kts | 36° |
| 2026-05-08 01:36 | 25.94365 | 123.62431 | 25727 ft | 487 kts | 26° |
| 2026-05-08 01:36 | 25.97397 | 123.64096 | 25888 ft | 486 kts | 21° |
| 2026-05-08 01:36 | 26.00481 | 123.65672 | 26048 ft | 488 kts | 21° |
| 2026-05-08 01:36 | 26.03530 | 123.67238 | 26206 ft | 490 kts | 21° |
| 2026-05-08 01:37 | 26.06663 | 123.68862 | 26354 ft | 491 kts | 21° |
| 2026-05-08 01:37 | 26.09756 | 123.70472 | 26496 ft | 492 kts | 21° |
| 2026-05-08 01:37 | 26.12816 | 123.72070 | 26651 ft | 493 kts | 21° |
| 2026-05-08 01:37 | 26.15919 | 123.73694 | 26802 ft | 494 kts | 21° |
| 2026-05-08 01:38 | 26.19039 | 123.75328 | 26968 ft | 495 kts | 21° |
| 2026-05-08 01:38 | 26.22159 | 123.76964 | 27089 ft | 496 kts | 21° |
| 2026-05-08 01:38 | 26.25293 | 123.78609 | 27241 ft | 498 kts | 21° |
| 2026-05-08 01:38 | 26.28426 | 123.80255 | 27408 ft | 499 kts | 21° |
| 2026-05-08 01:39 | 26.31579 | 123.81911 | 27674 ft | 501 kts | 21° |
| 2026-05-08 01:39 | 26.34734 | 123.83571 | 27880 ft | 503 kts | 21° |
| 2026-05-08 01:39 | 26.37903 | 123.85238 | 28130 ft | 505 kts | 21° |
| 2026-05-08 01:39 | 26.41088 | 123.86915 | 28291 ft | 506 kts | 21° |
| 2026-05-08 01:40 | 26.44275 | 123.88594 | 28441 ft | 507 kts | 21° |
| 2026-05-08 01:40 | 26.47467 | 123.90276 | 28582 ft | 509 kts | 21° |
| 2026-05-08 01:40 | 26.50674 | 123.91967 | 28726 ft | 510 kts | 21° |
| 2026-05-08 01:40 | 26.53886 | 123.93662 | 28854 ft | 511 kts | 21° |
| 2026-05-08 01:41 | 26.57100 | 123.95360 | 29045 ft | 512 kts | 21° |
| 2026-05-08 01:41 | 26.60328 | 123.97066 | 29155 ft | 514 kts | 21° |
| 2026-05-08 01:41 | 26.63510 | 123.98894 | 29229 ft | 518 kts | 27° |
| 2026-05-08 01:41 | 26.66470 | 124.01248 | 29357 ft | 524 kts | 37° |
| 2026-05-08 01:42 | 26.69077 | 124.04125 | 29501 ft | 528 kts | 45° |
| 2026-05-08 01:42 | 26.71477 | 124.07169 | 29613 ft | 530 kts | 47° |
| 2026-05-08 01:42 | 26.73838 | 124.10346 | 29732 ft | 532 kts | 48° |
| 2026-05-08 01:42 | 26.76173 | 124.13563 | 29861 ft | 533 kts | 49° |
| 2026-05-08 01:43 | 26.78505 | 124.16785 | 29968 ft | 534 kts | 48° |
| 2026-05-08 01:43 | 26.80859 | 124.20015 | 30083 ft | 535 kts | 48° |
| 2026-05-08 01:43 | 26.83228 | 124.23238 | 30184 ft | 537 kts | 48° |
| 2026-05-08 01:44 | 26.88006 | 124.29684 | 30375 ft | 539 kts | 47° |
| 2026-05-08 01:44 | 26.90405 | 124.32909 | 30492 ft | 539 kts | 47° |
| 2026-05-08 01:44 | 26.92812 | 124.36145 | 30612 ft | 540 kts | 47° |
| 2026-05-08 01:44 | 26.95217 | 124.39381 | 30732 ft | 541 kts | 47° |
| 2026-05-08 01:45 | 26.97622 | 124.42621 | 30850 ft | 541 kts | 47° |
| 2026-05-08 01:45 | 27.00027 | 124.45871 | 30979 ft | 542 kts | 47° |
| 2026-05-08 01:45 | 27.02438 | 124.49127 | 31136 ft | 542 kts | 47° |
| 2026-05-08 01:45 | 27.04844 | 124.52375 | 31303 ft | 541 kts | 47° |
| 2026-05-08 01:46 | 27.07251 | 124.55625 | 31472 ft | 541 kts | 47° |
| 2026-05-08 01:46 | 27.09654 | 124.58872 | 31593 ft | 541 kts | 47° |
| 2026-05-08 01:46 | 27.12060 | 124.62126 | 31764 ft | 541 kts | 47° |
| 2026-05-08 01:46 | 27.14456 | 124.65369 | 31926 ft | 540 kts | 47° |
| 2026-05-08 01:47 | 27.16854 | 124.68620 | 32098 ft | 540 kts | 47° |
| 2026-05-08 01:47 | 27.19249 | 124.71868 | 32254 ft | 540 kts | 47° |
| 2026-05-08 01:47 | 27.21642 | 124.75117 | 32403 ft | 540 kts | 47° |
| 2026-05-08 01:48 | 27.26426 | 124.81617 | 32712 ft | 539 kts | 47° |
| 2026-05-08 01:48 | 27.28815 | 124.84867 | 32870 ft | 539 kts | 47° |
| 2026-05-08 01:48 | 27.31204 | 124.88120 | 33020 ft | 540 kts | 47° |
| 2026-05-08 01:48 | 27.33595 | 124.91378 | 33208 ft | 540 kts | 47° |
| 2026-05-08 01:49 | 27.35955 | 124.94595 | 33366 ft | 539 kts | 47° |
| 2026-05-08 01:49 | 27.38343 | 124.97854 | 33519 ft | 540 kts | 47° |
| 2026-05-08 01:49 | 27.40732 | 125.01115 | 33678 ft | 540 kts | 47° |
| 2026-05-08 01:49 | 27.43123 | 125.04362 | 33807 ft | 540 kts | 47° |
| 2026-05-08 01:50 | 27.45532 | 125.07608 | 33969 ft | 540 kts | 47° |
| 2026-05-08 01:50 | 27.47942 | 125.10849 | 34089 ft | 540 kts | 47° |
| 2026-05-08 01:50 | 27.50357 | 125.14097 | 34225 ft | 540 kts | 47° |
| 2026-05-08 01:50 | 27.52776 | 125.17356 | 34365 ft | 540 kts | 47° |
| 2026-05-08 01:51 | 27.55182 | 125.20606 | 34536 ft | 539 kts | 47° |
| 2026-05-08 01:51 | 27.57584 | 125.23857 | 34708 ft | 538 kts | 47° |
| 2026-05-08 01:51 | 27.59977 | 125.27099 | 34850 ft | 538 kts | 47° |
| 2026-05-08 01:51 | 27.62366 | 125.30337 | 34999 ft | 538 kts | 46° |
| 2026-05-08 01:52 | 27.64755 | 125.33580 | 35129 ft | 537 kts | 46° |
| 2026-05-08 01:52 | 27.67148 | 125.36829 | 35289 ft | 537 kts | 46° |
| 2026-05-08 01:52 | 27.69533 | 125.40069 | 35423 ft | 537 kts | 46° |
| 2026-05-08 01:52 | 27.71889 | 125.43273 | 35549 ft | 537 kts | 46° |
| 2026-05-08 01:53 | 27.74273 | 125.46517 | 35698 ft | 537 kts | 46° |
| 2026-05-08 01:53 | 27.76652 | 125.49758 | 35828 ft | 536 kts | 46° |
| 2026-05-08 01:53 | 27.79031 | 125.53002 | 35977 ft | 536 kts | 46° |
| 2026-05-08 01:53 | 27.81408 | 125.56244 | 36092 ft | 536 kts | 45° |
| 2026-05-08 01:54 | 27.83780 | 125.59482 | 36239 ft | 535 kts | 45° |
| 2026-05-08 01:54 | 27.85387 | 125.61677 | 36324 ft | 535 kts | 45° |
| 2026-05-08 01:54 | 27.87727 | 125.64874 | 36443 ft | 535 kts | 45° |
| 2026-05-08 01:54 | 27.90127 | 125.68156 | 36568 ft | 535 kts | 45° |
| 2026-05-08 01:55 | 27.92467 | 125.71359 | 36698 ft | 534 kts | 45° |
| 2026-05-08 01:55 | 27.94830 | 125.74596 | 36827 ft | 534 kts | 45° |
| 2026-05-08 01:55 | 27.97196 | 125.77841 | 36956 ft | 534 kts | 45° |
| 2026-05-08 01:55 | 27.99560 | 125.81083 | 37085 ft | 533 kts | 45° |
| 2026-05-08 01:56 | 28.01920 | 125.84324 | 37191 ft | 533 kts | 45° |
| 2026-05-08 01:56 | 28.04276 | 125.87561 | 37301 ft | 533 kts | 45° |
| 2026-05-08 01:56 | 28.06632 | 125.90800 | 37407 ft | 533 kts | 45° |
| 2026-05-08 01:56 | 28.08987 | 125.94040 | 37500 ft | 533 kts | 45° |
| 2026-05-08 01:57 | 28.13700 | 126.00532 | 37687 ft | 533 kts | 45° |
| 2026-05-08 01:57 | 28.16052 | 126.03777 | 37793 ft | 533 kts | 44° |
| 2026-05-08 01:57 | 28.18401 | 126.07019 | 37893 ft | 532 kts | 44° |
| 2026-05-08 01:58 | 28.23099 | 126.13511 | 38068 ft | 532 kts | 44° |
| 2026-05-08 01:58 | 28.27792 | 126.20007 | 38233 ft | 532 kts | 44° |
| 2026-05-08 01:59 | 28.32485 | 126.26509 | 38353 ft | 533 kts | 44° |
| 2026-05-08 01:59 | 28.37171 | 126.33015 | 38513 ft | 533 kts | 44° |
| 2026-05-08 02:00 | 28.41861 | 126.39536 | 38636 ft | 533 kts | 44° |
| 2026-05-08 02:00 | 28.46546 | 126.46062 | 38748 ft | 533 kts | 44° |
| 2026-05-08 02:01 | 28.51227 | 126.52592 | 38847 ft | 533 kts | 44° |
| 2026-05-08 02:01 | 28.55908 | 126.59131 | 38936 ft | 533 kts | 44° |
| 2026-05-08 02:02 | 28.60561 | 126.65640 | 38949 ft | 535 kts | 44° |
| 2026-05-08 02:02 | 28.65275 | 126.72242 | 38934 ft | 538 kts | 44° |
| 2026-05-08 02:03 | 28.69987 | 126.78857 | 39027 ft | 538 kts | 44° |
| 2026-05-08 02:03 | 28.74698 | 126.85480 | 39076 ft | 538 kts | 44° |
| 2026-05-08 02:04 | 28.79410 | 126.92114 | 39084 ft | 538 kts | 44° |
| 2026-05-08 02:04 | 28.84115 | 126.98748 | 39089 ft | 538 kts | 45° |
| 2026-05-08 02:05 | 28.88821 | 127.05396 | 39086 ft | 538 kts | 45° |
| 2026-05-08 02:05 | 28.93522 | 127.12045 | 39086 ft | 539 kts | 45° |
| 2026-05-08 02:06 | 28.98228 | 127.18713 | 39086 ft | 540 kts | 45° |
| 2026-05-08 02:06 | 29.02941 | 127.25402 | 39090 ft | 541 kts | 45° |
| 2026-05-08 02:07 | 29.07657 | 127.32107 | 39080 ft | 541 kts | 45° |
| 2026-05-08 02:07 | 29.12375 | 127.38826 | 39078 ft | 542 kts | 45° |
| 2026-05-08 02:08 | 29.17094 | 127.45556 | 39074 ft | 542 kts | 45° |
| 2026-05-08 02:08 | 29.21814 | 127.52299 | 39079 ft | 543 kts | 45° |
| 2026-05-08 02:09 | 29.26531 | 127.59047 | 39078 ft | 544 kts | 45° |
| 2026-05-08 02:09 | 29.31257 | 127.65821 | 39078 ft | 544 kts | 45° |
| 2026-05-08 02:10 | 29.35977 | 127.72597 | 39077 ft | 544 kts | 45° |
| 2026-05-08 02:10 | 29.40702 | 127.79390 | 39075 ft | 545 kts | 45° |
| 2026-05-08 02:11 | 29.45423 | 127.86190 | 39076 ft | 545 kts | 46° |
| 2026-05-08 02:11 | 29.50141 | 127.92998 | 39074 ft | 545 kts | 46° |
| 2026-05-08 02:12 | 29.54861 | 127.99823 | 39070 ft | 545 kts | 46° |
| 2026-05-08 02:12 | 29.59551 | 128.06604 | 39075 ft | 546 kts | 46° |
| 2026-05-08 02:13 | 29.64278 | 128.13418 | 39889 ft | 539 kts | 51° |
| 2026-05-08 02:13 | 29.66590 | 128.16742 | 39669 ft | 526 kts | 51° |
| 2026-05-08 02:13 | 29.68824 | 128.20005 | 38578 ft | 517 kts | 46° |
| 2026-05-08 02:14 | 29.73265 | 128.26518 | 38746 ft | 514 kts | 45° |
| 2026-05-08 02:14 | 29.75469 | 128.29729 | 38967 ft | 509 kts | 45° |
| 2026-05-08 02:14 | 29.77660 | 128.32918 | 39055 ft | 508 kts | 45° |
| 2026-05-08 02:15 | 29.82054 | 128.39304 | 39066 ft | 510 kts | 45° |
| 2026-05-08 02:15 | 29.86468 | 128.45737 | 39066 ft | 512 kts | 45° |
| 2026-05-08 02:16 | 29.90890 | 128.52199 | 39063 ft | 514 kts | 46° |
| 2026-05-08 02:16 | 29.95324 | 128.58694 | 39061 ft | 517 kts | 46° |
| 2026-05-08 02:17 | 29.99753 | 128.65192 | 39060 ft | 519 kts | 46° |
| 2026-05-08 02:17 | 30.04226 | 128.71765 | 39061 ft | 522 kts | 46° |
| 2026-05-08 02:18 | 30.08718 | 128.78376 | 39055 ft | 525 kts | 46° |
| 2026-05-08 02:18 | 30.13232 | 128.85031 | 39059 ft | 527 kts | 46° |
| 2026-05-08 02:19 | 30.17763 | 128.91722 | 39052 ft | 530 kts | 46° |
| 2026-05-08 02:19 | 30.22316 | 128.98457 | 39057 ft | 533 kts | 46° |
| 2026-05-08 02:20 | 30.26883 | 129.05227 | 39049 ft | 535 kts | 46° |
| 2026-05-08 02:20 | 30.31476 | 129.12043 | 39056 ft | 538 kts | 46° |
| 2026-05-08 02:21 | 30.36084 | 129.18893 | 39061 ft | 541 kts | 46° |
| 2026-05-08 02:21 | 30.40680 | 129.25739 | 39043 ft | 543 kts | 46° |
| 2026-05-08 02:22 | 30.45327 | 129.32671 | 39044 ft | 545 kts | 46° |
| 2026-05-08 02:22 | 30.49989 | 129.39640 | 39047 ft | 548 kts | 47° |
| 2026-05-08 02:23 | 30.54666 | 129.46642 | 39045 ft | 550 kts | 47° |
| 2026-05-08 02:23 | 30.59360 | 129.53684 | 39040 ft | 551 kts | 47° |
| 2026-05-08 02:24 | 30.64048 | 129.60730 | 39041 ft | 551 kts | 47° |
| 2026-05-08 02:24 | 30.68731 | 129.67781 | 39038 ft | 552 kts | 47° |
| 2026-05-08 02:25 | 30.73423 | 129.74856 | 39040 ft | 552 kts | 47° |
| 2026-05-08 02:25 | 30.78102 | 129.81925 | 39040 ft | 552 kts | 47° |
| 2026-05-08 02:26 | 30.82753 | 129.88963 | 39036 ft | 552 kts | 47° |
| 2026-05-08 02:26 | 30.87073 | 129.96399 | 39034 ft | 557 kts | 53° |
| 2026-05-08 02:27 | 30.91173 | 130.04067 | 39031 ft | 558 kts | 54° |
| 2026-05-08 02:27 | 30.95238 | 130.11776 | 39028 ft | 558 kts | 54° |
| 2026-05-08 02:28 | 30.99307 | 130.19485 | 39024 ft | 558 kts | 54° |
| 2026-05-08 02:28 | 31.03381 | 130.27193 | 39026 ft | 558 kts | 54° |
| 2026-05-08 02:29 | 31.07454 | 130.34907 | 39016 ft | 558 kts | 54° |
| 2026-05-08 02:29 | 31.11523 | 130.42629 | 39013 ft | 559 kts | 54° |
| 2026-05-08 02:30 | 31.15593 | 130.50368 | 39014 ft | 559 kts | 54° |
| 2026-05-08 02:30 | 31.19652 | 130.58107 | 39016 ft | 559 kts | 54° |
| 2026-05-08 02:31 | 31.23719 | 130.65870 | 39007 ft | 560 kts | 54° |
| 2026-05-08 02:31 | 31.27753 | 130.73589 | 39005 ft | 560 kts | 54° |
| 2026-05-08 02:32 | 31.31837 | 130.81419 | 39000 ft | 561 kts | 54° |
| 2026-05-08 02:32 | 31.35865 | 130.89158 | 38993 ft | 560 kts | 54° |
| 2026-05-08 02:33 | 31.39918 | 130.96959 | 38991 ft | 561 kts | 54° |
| 2026-05-08 02:33 | 31.43968 | 131.04771 | 38986 ft | 561 kts | 54° |
| 2026-05-08 02:34 | 31.48025 | 131.12614 | 38991 ft | 562 kts | 54° |
| 2026-05-08 02:34 | 31.52009 | 131.20330 | 38971 ft | 562 kts | 54° |
| 2026-05-08 02:35 | 31.56061 | 131.28193 | 38974 ft | 563 kts | 54° |
| 2026-05-08 02:35 | 31.60109 | 131.36066 | 38951 ft | 564 kts | 54° |
| 2026-05-08 02:36 | 31.64154 | 131.43961 | 38936 ft | 565 kts | 55° |
| 2026-05-08 02:36 | 31.68200 | 131.51869 | 38934 ft | 565 kts | 55° |
| 2026-05-08 02:37 | 31.72216 | 131.59733 | 38926 ft | 565 kts | 55° |
| 2026-05-08 02:37 | 31.76250 | 131.67650 | 38927 ft | 565 kts | 55° |
| 2026-05-08 02:38 | 31.80286 | 131.75588 | 38934 ft | 566 kts | 55° |
| 2026-05-08 02:38 | 31.84319 | 131.83539 | 38937 ft | 566 kts | 55° |
| 2026-05-08 02:39 | 31.88349 | 131.91499 | 38937 ft | 566 kts | 55° |
| 2026-05-08 02:39 | 31.92375 | 131.99468 | 38934 ft | 567 kts | 55° |
| 2026-05-08 02:40 | 31.96400 | 132.07453 | 38932 ft | 567 kts | 55° |
| 2026-05-08 02:40 | 32.00424 | 132.15451 | 38929 ft | 567 kts | 55° |
| 2026-05-08 02:41 | 32.04440 | 132.23452 | 38930 ft | 567 kts | 55° |
| 2026-05-08 02:41 | 32.08455 | 132.31467 | 38928 ft | 567 kts | 55° |
| 2026-05-08 02:42 | 32.12461 | 132.39482 | 38924 ft | 568 kts | 55° |
| 2026-05-08 02:42 | 32.15629 | 132.46283 | 38927 ft | 570 kts | 59° |
| 2026-05-08 02:43 | 32.19094 | 132.54702 | 38923 ft | 571 kts | 61° |
| 2026-05-08 02:43 | 32.22516 | 132.63101 | 38921 ft | 571 kts | 60° |
| 2026-05-08 02:44 | 32.26023 | 132.71511 | 38922 ft | 570 kts | 60° |
| 2026-05-08 02:44 | 32.29560 | 132.79898 | 38918 ft | 570 kts | 60° |
| 2026-05-08 02:45 | 32.33100 | 132.88300 | 38916 ft | 571 kts | 60° |
| 2026-05-08 02:45 | 32.36628 | 132.96707 | 38919 ft | 570 kts | 60° |
| 2026-05-08 02:46 | 32.40124 | 133.05065 | 38913 ft | 571 kts | 60° |
| 2026-05-08 02:46 | 32.43640 | 133.13491 | 38916 ft | 571 kts | 60° |
| 2026-05-08 02:47 | 32.47151 | 133.21925 | 38914 ft | 571 kts | 60° |
| 2026-05-08 02:47 | 32.50659 | 133.30373 | 38911 ft | 572 kts | 60° |
| 2026-05-08 02:48 | 32.54163 | 133.38829 | 38910 ft | 572 kts | 60° |
| 2026-05-08 02:48 | 32.57660 | 133.47293 | 38912 ft | 572 kts | 61° |
| 2026-05-08 02:49 | 32.61154 | 133.55764 | 38907 ft | 572 kts | 61° |
| 2026-05-08 02:49 | 32.64646 | 133.64259 | 38907 ft | 572 kts | 61° |
| 2026-05-08 02:50 | 32.68127 | 133.72744 | 38904 ft | 571 kts | 61° |
| 2026-05-08 02:50 | 32.71582 | 133.81174 | 38901 ft | 571 kts | 61° |
| 2026-05-08 02:51 | 32.75057 | 133.89677 | 38904 ft | 572 kts | 61° |
| 2026-05-08 02:51 | 32.78522 | 133.98177 | 38896 ft | 572 kts | 61° |
| 2026-05-08 02:52 | 32.81911 | 134.06742 | 38875 ft | 573 kts | 66° |
| 2026-05-08 02:52 | 32.84411 | 134.15766 | 38892 ft | 576 kts | 72° |
| 2026-05-08 02:53 | 32.86683 | 134.24899 | 38897 ft | 575 kts | 72° |
| 2026-05-08 02:53 | 32.88914 | 134.34034 | 38891 ft | 575 kts | 72° |
| 2026-05-08 02:54 | 32.91160 | 134.43167 | 38883 ft | 575 kts | 72° |
| 2026-05-08 02:54 | 32.93415 | 134.52301 | 38869 ft | 575 kts | 72° |
| 2026-05-08 02:55 | 32.96789 | 134.66002 | 38871 ft | 575 kts | 72° |
| 2026-05-08 02:56 | 32.99013 | 134.75079 | 38881 ft | 574 kts | 72° |
| 2026-05-08 02:56 | 33.00614 | 134.84392 | 38877 ft | 575 kts | 82° |
| 2026-05-08 02:57 | 33.01689 | 134.93825 | 38879 ft | 575 kts | 83° |
| 2026-05-08 02:57 | 33.02677 | 135.03281 | 38879 ft | 574 kts | 83° |
| 2026-05-08 02:58 | 33.03667 | 135.12707 | 38875 ft | 573 kts | 83° |
| 2026-05-08 02:58 | 33.04673 | 135.22143 | 38873 ft | 572 kts | 83° |
| 2026-05-08 02:59 | 33.05676 | 135.31558 | 38871 ft | 572 kts | 83° |
| 2026-05-08 02:59 | 33.06666 | 135.40960 | 38870 ft | 571 kts | 83° |
| 2026-05-08 03:00 | 33.07647 | 135.50345 | 38872 ft | 570 kts | 83° |
| 2026-05-08 03:00 | 33.08614 | 135.59654 | 38870 ft | 569 kts | 83° |
| 2026-05-08 03:01 | 33.09582 | 135.69013 | 38870 ft | 568 kts | 83° |
| 2026-05-08 03:01 | 33.10538 | 135.78362 | 38876 ft | 567 kts | 84° |
| 2026-05-08 03:02 | 33.11482 | 135.87691 | 38874 ft | 566 kts | 84° |
| 2026-05-08 03:02 | 33.12419 | 135.96994 | 38874 ft | 565 kts | 84° |
| 2026-05-08 03:03 | 33.13348 | 136.06287 | 38873 ft | 564 kts | 84° |
| 2026-05-08 03:03 | 33.14270 | 136.15584 | 38875 ft | 563 kts | 84° |
| 2026-05-08 03:04 | 33.15185 | 136.24868 | 38872 ft | 563 kts | 84° |
| 2026-05-08 03:04 | 33.16091 | 136.34150 | 38875 ft | 562 kts | 84° |
| 2026-05-08 03:05 | 33.16989 | 136.43417 | 38878 ft | 561 kts | 84° |
| 2026-05-08 03:05 | 33.17874 | 136.52615 | 38876 ft | 561 kts | 84° |
| 2026-05-08 03:06 | 33.18760 | 136.61877 | 38876 ft | 561 kts | 84° |
| 2026-05-08 03:06 | 33.19634 | 136.71134 | 38874 ft | 561 kts | 85° |
| 2026-05-08 03:07 | 33.20501 | 136.80389 | 38868 ft | 561 kts | 85° |
| 2026-05-08 03:07 | 33.21363 | 136.89649 | 38873 ft | 561 kts | 85° |
| 2026-05-08 03:08 | 33.22219 | 136.98917 | 38871 ft | 561 kts | 85° |
| 2026-05-08 03:08 | 33.23110 | 137.08113 | 38858 ft | 561 kts | 81° |
| 2026-05-08 03:09 | 33.25021 | 137.17156 | 38865 ft | 563 kts | 73° |
| 2026-05-08 03:09 | 33.27259 | 137.26119 | 38867 ft | 562 kts | 73° |
| 2026-05-08 03:10 | 33.29533 | 137.35054 | 38868 ft | 562 kts | 73° |
| 2026-05-08 03:10 | 33.31777 | 137.43995 | 38872 ft | 562 kts | 73° |
| 2026-05-08 03:11 | 33.34001 | 137.52962 | 38873 ft | 562 kts | 73° |
| 2026-05-08 03:11 | 33.36209 | 137.61921 | 38870 ft | 561 kts | 73° |
| 2026-05-08 03:12 | 33.38410 | 137.70875 | 38876 ft | 561 kts | 73° |
| 2026-05-08 03:12 | 33.40608 | 137.79840 | 38870 ft | 561 kts | 73° |
| 2026-05-08 03:13 | 33.42844 | 137.88790 | 38863 ft | 561 kts | 70° |
| 2026-05-08 03:13 | 33.44408 | 137.93052 | 38876 ft | 559 kts | 59° |
| 2026-05-08 03:13 | 33.46321 | 137.97110 | 38875 ft | 559 kts | 57° |
| 2026-05-08 03:14 | 33.50337 | 138.04998 | 38872 ft | 558 kts | 56° |
| 2026-05-08 03:14 | 33.54482 | 138.12942 | 38871 ft | 558 kts | 56° |
| 2026-05-08 03:15 | 33.58552 | 138.20811 | 38868 ft | 559 kts | 56° |
| 2026-05-08 03:15 | 33.62621 | 138.28755 | 38864 ft | 559 kts | 56° |
| 2026-05-08 03:16 | 33.66679 | 138.36715 | 38866 ft | 559 kts | 56° |
| 2026-05-08 03:16 | 33.70729 | 138.44678 | 38864 ft | 559 kts | 56° |
| 2026-05-08 03:17 | 33.74775 | 138.52649 | 38857 ft | 559 kts | 57° |
| 2026-05-08 03:17 | 33.78818 | 138.60629 | 38856 ft | 559 kts | 57° |
| 2026-05-08 03:18 | 33.82857 | 138.68610 | 38852 ft | 559 kts | 57° |
| 2026-05-08 03:18 | 33.86892 | 138.76602 | 38854 ft | 559 kts | 57° |
| 2026-05-08 03:19 | 33.90920 | 138.84602 | 38850 ft | 559 kts | 57° |
| 2026-05-08 03:19 | 33.94944 | 138.92613 | 38847 ft | 559 kts | 57° |
| 2026-05-08 03:20 | 33.98933 | 139.00571 | 38852 ft | 558 kts | 57° |
| 2026-05-08 03:20 | 34.02944 | 139.08589 | 38850 ft | 558 kts | 57° |
| 2026-05-08 03:21 | 34.06945 | 139.16608 | 38848 ft | 558 kts | 57° |
| 2026-05-08 03:21 | 34.10942 | 139.24636 | 38851 ft | 558 kts | 57° |
| 2026-05-08 03:22 | 34.14929 | 139.32663 | 38853 ft | 557 kts | 57° |
| 2026-05-08 03:22 | 34.18909 | 139.40688 | 38854 ft | 557 kts | 58° |
| 2026-05-08 03:23 | 34.22882 | 139.48716 | 38851 ft | 557 kts | 58° |
| 2026-05-08 03:23 | 34.26854 | 139.56762 | 38852 ft | 557 kts | 58° |
| 2026-05-08 03:24 | 34.30797 | 139.64768 | 38850 ft | 557 kts | 58° |
| 2026-05-08 03:24 | 34.34758 | 139.72831 | 38844 ft | 557 kts | 58° |
| 2026-05-08 03:25 | 34.38720 | 139.80912 | 38839 ft | 558 kts | 58° |
| 2026-05-08 03:25 | 34.42675 | 139.88997 | 38850 ft | 558 kts | 58° |
| 2026-05-08 03:26 | 34.46625 | 139.97091 | 38834 ft | 558 kts | 58° |
| 2026-05-08 03:26 | 34.50568 | 140.05192 | 38831 ft | 558 kts | 58° |
| 2026-05-08 03:27 | 34.54510 | 140.13306 | 38831 ft | 558 kts | 58° |
| 2026-05-08 03:27 | 34.58440 | 140.21414 | 38832 ft | 558 kts | 58° |
| 2026-05-08 03:28 | 34.62365 | 140.29533 | 38836 ft | 557 kts | 58° |
| 2026-05-08 03:28 | 34.66283 | 140.37654 | 38830 ft | 557 kts | 58° |
| 2026-05-08 03:29 | 34.70191 | 140.45774 | 38832 ft | 556 kts | 59° |
| 2026-05-08 03:29 | 34.74009 | 140.53952 | 38831 ft | 556 kts | 60° |
| 2026-05-08 03:30 | 34.79630 | 140.66298 | 38833 ft | 556 kts | 60° |
| 2026-05-08 03:31 | 34.87123 | 140.82701 | 38831 ft | 556 kts | 60° |
| 2026-05-08 03:32 | 34.92761 | 140.95064 | 38829 ft | 556 kts | 60° |
| 2026-05-08 03:32 | 34.95877 | 141.01918 | 38833 ft | 556 kts | 60° |
| 2026-05-08 03:33 | 34.99623 | 141.10178 | 38831 ft | 556 kts | 61° |
| 2026-05-08 03:33 | 35.03362 | 141.18443 | 38829 ft | 556 kts | 61° |
| 2026-05-08 03:34 | 35.07094 | 141.26711 | 38831 ft | 556 kts | 61° |
| 2026-05-08 03:34 | 35.10822 | 141.34991 | 38829 ft | 556 kts | 61° |
| 2026-05-08 03:35 | 35.14538 | 141.43262 | 38827 ft | 555 kts | 61° |
| 2026-05-08 03:35 | 35.18245 | 141.51535 | 38826 ft | 555 kts | 61° |
| 2026-05-08 03:36 | 35.21948 | 141.59820 | 38825 ft | 555 kts | 61° |
| 2026-05-08 03:36 | 35.25646 | 141.68112 | 38825 ft | 555 kts | 61° |
| 2026-05-08 03:37 | 35.29337 | 141.76411 | 38834 ft | 555 kts | 62° |
| 2026-05-08 03:37 | 35.33021 | 141.84713 | 38832 ft | 555 kts | 62° |
| 2026-05-08 03:38 | 35.36675 | 141.92966 | 38832 ft | 554 kts | 62° |
| 2026-05-08 03:38 | 35.40346 | 142.01280 | 38831 ft | 554 kts | 62° |
| 2026-05-08 03:39 | 35.44011 | 142.09600 | 38831 ft | 554 kts | 62° |
| 2026-05-08 03:39 | 35.47668 | 142.17922 | 38834 ft | 554 kts | 62° |
| 2026-05-08 03:40 | 35.51320 | 142.26253 | 38833 ft | 554 kts | 62° |
| 2026-05-08 03:40 | 35.54966 | 142.34593 | 38833 ft | 553 kts | 62° |
| 2026-05-08 03:41 | 35.58580 | 142.42878 | 38833 ft | 553 kts | 62° |
| 2026-05-08 03:41 | 35.62207 | 142.51215 | 38832 ft | 553 kts | 62° |
| 2026-05-08 03:42 | 35.65830 | 142.59564 | 38835 ft | 553 kts | 63° |
| 2026-05-08 03:42 | 35.69447 | 142.67922 | 38835 ft | 554 kts | 63° |
| 2026-05-08 03:43 | 35.73059 | 142.76287 | 38834 ft | 554 kts | 63° |
| 2026-05-08 03:43 | 35.76667 | 142.84663 | 38832 ft | 553 kts | 63° |
| 2026-05-08 03:44 | 35.80267 | 142.93041 | 38834 ft | 553 kts | 63° |
| 2026-05-08 03:44 | 35.83856 | 143.01417 | 38834 ft | 552 kts | 63° |
| 2026-05-08 03:45 | 35.87439 | 143.09796 | 38835 ft | 552 kts | 63° |
| 2026-05-08 03:45 | 35.91004 | 143.18178 | 38830 ft | 551 kts | 63° |
| 2026-05-08 03:46 | 35.93402 | 143.27086 | 38842 ft | 546 kts | 83° |
| 2026-05-08 03:46 | 35.94506 | 143.36332 | 38835 ft | 544 kts | 86° |
| 2026-05-08 03:47 | 35.95397 | 143.45534 | 38838 ft | 543 kts | 86° |
| 2026-05-08 03:47 | 35.96292 | 143.54774 | 38839 ft | 542 kts | 86° |
| 2026-05-08 03:48 | 35.97216 | 143.64011 | 38840 ft | 542 kts | 86° |
| 2026-05-08 03:48 | 35.98144 | 143.73236 | 38844 ft | 541 kts | 85° |
| 2026-05-08 03:49 | 35.99067 | 143.82454 | 38845 ft | 541 kts | 85° |
| 2026-05-08 03:49 | 35.99982 | 143.91681 | 38848 ft | 541 kts | 85° |
| 2026-05-08 03:50 | 36.00902 | 144.00894 | 38843 ft | 541 kts | 85° |
| 2026-05-08 03:50 | 36.01702 | 144.05450 | 38850 ft | 544 kts | 74° |
| 2026-05-08 03:50 | 36.03090 | 144.09798 | 38849 ft | 545 kts | 63° |
| 2026-05-08 03:50 | 36.05092 | 144.13765 | 38848 ft | 544 kts | 51° |
| 2026-05-08 03:51 | 36.07541 | 144.17320 | 38850 ft | 543 kts | 46° |
| 2026-05-08 03:51 | 36.12730 | 144.24092 | 38848 ft | 542 kts | 44° |
| 2026-05-08 03:52 | 36.17951 | 144.30745 | 38849 ft | 542 kts | 44° |
| 2026-05-08 03:52 | 36.23168 | 144.37495 | 38848 ft | 542 kts | 44° |
| 2026-05-08 03:53 | 36.28341 | 144.44271 | 38852 ft | 542 kts | 45° |
| 2026-05-08 03:53 | 36.33509 | 144.51074 | 38849 ft | 541 kts | 45° |
| 2026-05-08 03:54 | 36.38666 | 144.57875 | 38845 ft | 541 kts | 45° |
| 2026-05-08 03:54 | 36.43816 | 144.64676 | 38843 ft | 541 kts | 45° |
| 2026-05-08 03:55 | 36.48965 | 144.71487 | 38845 ft | 540 kts | 45° |
| 2026-05-08 03:55 | 36.54111 | 144.78310 | 38844 ft | 540 kts | 45° |
| 2026-05-08 03:56 | 36.59213 | 144.85088 | 38844 ft | 540 kts | 45° |
| 2026-05-08 03:56 | 36.64339 | 144.91912 | 38842 ft | 540 kts | 45° |
| 2026-05-08 03:57 | 36.69460 | 144.98745 | 38835 ft | 539 kts | 45° |
| 2026-05-08 03:57 | 36.74576 | 145.05585 | 38840 ft | 539 kts | 45° |
| 2026-05-08 03:58 | 36.79683 | 145.12426 | 38838 ft | 539 kts | 45° |
| 2026-05-08 03:58 | 36.84784 | 145.19275 | 38843 ft | 538 kts | 45° |
| 2026-05-08 03:59 | 36.89878 | 145.26128 | 38835 ft | 538 kts | 45° |
| 2026-05-08 03:59 | 36.94970 | 145.32993 | 38835 ft | 538 kts | 45° |
| 2026-05-08 04:00 | 37.00056 | 145.39865 | 38835 ft | 538 kts | 45° |
| 2026-05-08 04:00 | 37.05135 | 145.46742 | 38830 ft | 538 kts | 45° |
| 2026-05-08 04:01 | 37.10214 | 145.53633 | 38834 ft | 538 kts | 46° |
| 2026-05-08 04:01 | 37.15288 | 145.60531 | 38829 ft | 538 kts | 46° |
| 2026-05-08 04:02 | 37.20144 | 145.67610 | 38824 ft | 540 kts | 55° |
| 2026-05-08 04:02 | 37.24271 | 145.75489 | 38822 ft | 541 kts | 57° |
| 2026-05-08 04:03 | 37.28247 | 145.83504 | 38835 ft | 541 kts | 58° |
| 2026-05-08 04:03 | 37.34197 | 145.95567 | 38836 ft | 541 kts | 58° |
| 2026-05-08 04:04 | 37.38179 | 146.03607 | 38836 ft | 542 kts | 58° |
| 2026-05-08 04:04 | 37.42168 | 146.11666 | 38827 ft | 543 kts | 57° |
| 2026-05-08 04:05 | 37.46155 | 146.19740 | 38838 ft | 543 kts | 57° |
| 2026-05-08 04:05 | 37.50135 | 146.27820 | 38823 ft | 543 kts | 57° |
| 2026-05-08 04:06 | 37.54106 | 146.35904 | 38836 ft | 543 kts | 57° |
| 2026-05-08 04:06 | 37.58073 | 146.43998 | 38830 ft | 543 kts | 57° |
| 2026-05-08 04:07 | 37.62036 | 146.52105 | 38839 ft | 542 kts | 58° |
| 2026-05-08 04:07 | 37.65989 | 146.60211 | 38837 ft | 542 kts | 58° |
| 2026-05-08 04:08 | 37.69930 | 146.68314 | 38830 ft | 542 kts | 58° |
| 2026-05-08 04:08 | 37.73878 | 146.76450 | 38839 ft | 542 kts | 58° |
| 2026-05-08 04:09 | 37.77806 | 146.84567 | 38830 ft | 541 kts | 58° |
| 2026-05-08 04:09 | 37.81704 | 146.92638 | 38834 ft | 541 kts | 58° |
| 2026-05-08 04:10 | 37.85622 | 147.00776 | 38843 ft | 541 kts | 58° |
| 2026-05-08 04:10 | 37.89534 | 147.08918 | 38831 ft | 541 kts | 58° |
| 2026-05-08 04:11 | 37.93437 | 147.17064 | 38840 ft | 541 kts | 58° |
| 2026-05-08 04:11 | 37.97332 | 147.25212 | 38839 ft | 541 kts | 58° |
| 2026-05-08 04:12 | 38.01226 | 147.33380 | 38847 ft | 541 kts | 58° |
| 2026-05-08 04:12 | 38.05111 | 147.41550 | 38843 ft | 541 kts | 58° |
| 2026-05-08 04:13 | 38.08989 | 147.49724 | 38848 ft | 541 kts | 58° |
| 2026-05-08 04:13 | 38.12865 | 147.57913 | 38851 ft | 541 kts | 58° |
| 2026-05-08 04:14 | 38.16733 | 147.66108 | 38851 ft | 541 kts | 58° |
| 2026-05-08 04:14 | 38.20596 | 147.74313 | 38842 ft | 540 kts | 58° |
| 2026-05-08 04:15 | 38.24451 | 147.82522 | 38860 ft | 541 kts | 58° |
| 2026-05-08 04:15 | 38.28277 | 147.90686 | 38846 ft | 540 kts | 58° |
| 2026-05-08 04:16 | 38.32115 | 147.98902 | 38843 ft | 541 kts | 58° |
| 2026-05-08 04:16 | 38.35959 | 148.07149 | 38854 ft | 541 kts | 58° |
| 2026-05-08 04:17 | 38.39794 | 148.15401 | 38853 ft | 541 kts | 58° |
| 2026-05-08 04:17 | 38.43623 | 148.23657 | 38857 ft | 541 kts | 58° |
| 2026-05-08 04:18 | 38.47443 | 148.31918 | 38860 ft | 540 kts | 58° |
| 2026-05-08 04:18 | 38.51256 | 148.40183 | 38847 ft | 540 kts | 58° |
| 2026-05-08 04:19 | 38.55055 | 148.48439 | 38862 ft | 539 kts | 58° |
| 2026-05-08 04:19 | 38.58211 | 148.55315 | 38847 ft | 539 kts | 58° |
| 2026-05-08 04:20 | 38.62636 | 148.64981 | 38864 ft | 539 kts | 58° |
| 2026-05-08 04:20 | 38.65778 | 148.71860 | 38853 ft | 539 kts | 58° |
| 2026-05-08 04:21 | 38.69550 | 148.80141 | 38862 ft | 538 kts | 58° |
| 2026-05-08 04:21 | 38.73317 | 148.88431 | 38863 ft | 539 kts | 58° |
| 2026-05-08 04:22 | 38.77081 | 148.96737 | 38852 ft | 539 kts | 58° |
| 2026-05-08 04:22 | 38.80837 | 149.05043 | 38869 ft | 539 kts | 59° |
| 2026-05-08 04:23 | 38.84586 | 149.13349 | 38856 ft | 537 kts | 59° |
| 2026-05-08 04:23 | 38.88313 | 149.21644 | 38856 ft | 536 kts | 59° |
| 2026-05-08 04:24 | 38.92034 | 149.29947 | 38855 ft | 536 kts | 59° |
| 2026-05-08 04:24 | 38.95750 | 149.38257 | 38854 ft | 536 kts | 59° |
| 2026-05-08 04:25 | 38.99437 | 149.46521 | 38851 ft | 536 kts | 59° |
| 2026-05-08 04:25 | 39.03137 | 149.54837 | 38850 ft | 536 kts | 59° |
| 2026-05-08 04:26 | 39.06830 | 149.63159 | 38851 ft | 536 kts | 60° |
| 2026-05-08 04:26 | 39.10513 | 149.71480 | 38851 ft | 535 kts | 60° |
| 2026-05-08 04:27 | 39.14193 | 149.79818 | 38848 ft | 535 kts | 60° |
| 2026-05-08 04:27 | 39.17408 | 149.88456 | 38846 ft | 535 kts | 66° |
| 2026-05-08 04:28 | 39.20374 | 149.97245 | 38843 ft | 534 kts | 67° |
| 2026-05-08 04:28 | 39.23298 | 150.06057 | 38842 ft | 534 kts | 67° |
| 2026-05-08 04:29 | 39.26222 | 150.14865 | 38844 ft | 534 kts | 67° |
| 2026-05-08 04:29 | 39.29149 | 150.23674 | 38840 ft | 534 kts | 67° |
| 2026-05-08 04:30 | 39.32072 | 150.32487 | 38835 ft | 534 kts | 67° |
| 2026-05-08 04:30 | 39.34990 | 150.41311 | 38835 ft | 534 kts | 67° |
| 2026-05-08 04:31 | 39.37902 | 150.50147 | 38839 ft | 534 kts | 67° |
| 2026-05-08 04:31 | 39.40791 | 150.58943 | 38836 ft | 534 kts | 67° |
| 2026-05-08 04:32 | 39.43693 | 150.67806 | 38833 ft | 535 kts | 67° |
| 2026-05-08 04:32 | 39.46580 | 150.76651 | 38834 ft | 534 kts | 67° |
| 2026-05-08 04:33 | 39.49472 | 150.85537 | 38831 ft | 534 kts | 67° |
| 2026-05-08 04:33 | 39.52332 | 150.94355 | 38831 ft | 534 kts | 67° |
| 2026-05-08 04:34 | 39.55202 | 151.03231 | 38828 ft | 534 kts | 68° |
| 2026-05-08 04:34 | 39.58065 | 151.12115 | 38831 ft | 534 kts | 68° |
| 2026-05-08 04:35 | 39.60917 | 151.20992 | 38830 ft | 534 kts | 68° |
| 2026-05-08 04:35 | 39.63766 | 151.29888 | 38827 ft | 533 kts | 68° |
| 2026-05-08 04:36 | 39.66607 | 151.38789 | 38826 ft | 533 kts | 68° |
| 2026-05-08 04:36 | 39.69437 | 151.47682 | 38821 ft | 533 kts | 68° |
| 2026-05-08 04:37 | 39.72265 | 151.56598 | 38822 ft | 533 kts | 68° |
| 2026-05-08 04:37 | 39.75084 | 151.65515 | 38819 ft | 533 kts | 68° |
| 2026-05-08 04:38 | 39.77877 | 151.74377 | 38821 ft | 533 kts | 68° |
| 2026-05-08 04:38 | 39.80681 | 151.83305 | 38819 ft | 533 kts | 68° |
| 2026-05-08 04:39 | 39.83478 | 151.92238 | 38817 ft | 533 kts | 68° |
| 2026-05-08 04:39 | 39.86268 | 152.01178 | 38817 ft | 533 kts | 68° |
| 2026-05-08 04:40 | 39.89051 | 152.10127 | 38815 ft | 533 kts | 68° |
| 2026-05-08 04:40 | 39.91821 | 152.19060 | 38812 ft | 532 kts | 68° |
| 2026-05-08 04:41 | 39.94592 | 152.28027 | 38812 ft | 532 kts | 68° |
| 2026-05-08 04:41 | 39.97347 | 152.36974 | 38808 ft | 532 kts | 68° |
| 2026-05-08 04:42 | 40.00098 | 152.45934 | 38809 ft | 532 kts | 69° |
| 2026-05-08 04:42 | 40.02843 | 152.54906 | 38811 ft | 532 kts | 69° |
| 2026-05-08 04:43 | 40.05581 | 152.63886 | 38806 ft | 532 kts | 69° |
| 2026-05-08 04:43 | 40.08296 | 152.72818 | 38814 ft | 533 kts | 69° |
| 2026-05-08 04:44 | 40.11021 | 152.81813 | 38810 ft | 532 kts | 69° |
| 2026-05-08 04:44 | 40.13738 | 152.90811 | 38807 ft | 533 kts | 69° |
| 2026-05-08 04:45 | 40.16449 | 152.99824 | 38809 ft | 533 kts | 69° |
| 2026-05-08 04:45 | 40.19154 | 153.08844 | 38808 ft | 533 kts | 69° |
| 2026-05-08 04:46 | 40.21851 | 153.17869 | 38807 ft | 533 kts | 69° |
| 2026-05-08 04:46 | 40.24541 | 153.26902 | 38809 ft | 533 kts | 69° |
| 2026-05-08 04:47 | 40.27231 | 153.35966 | 38810 ft | 533 kts | 69° |
| 2026-05-08 04:47 | 40.29910 | 153.45022 | 38810 ft | 533 kts | 69° |
| 2026-05-08 04:48 | 40.32586 | 153.54097 | 38812 ft | 534 kts | 69° |
| 2026-05-08 04:48 | 40.35258 | 153.63192 | 38816 ft | 534 kts | 69° |
| 2026-05-08 04:49 | 40.37920 | 153.72286 | 38816 ft | 535 kts | 69° |
| 2026-05-08 04:49 | 40.40582 | 153.81413 | 38817 ft | 535 kts | 69° |
| 2026-05-08 04:50 | 40.43235 | 153.90536 | 38817 ft | 535 kts | 69° |
| 2026-05-08 04:50 | 40.45868 | 153.99626 | 38819 ft | 536 kts | 69° |
| 2026-05-08 04:51 | 40.48512 | 154.08783 | 38822 ft | 536 kts | 69° |
| 2026-05-08 04:51 | 40.51149 | 154.17949 | 38819 ft | 537 kts | 69° |
| 2026-05-08 04:52 | 40.53784 | 154.27140 | 38827 ft | 537 kts | 69° |
| 2026-05-08 04:52 | 40.56412 | 154.36341 | 38825 ft | 537 kts | 69° |
| 2026-05-08 04:53 | 40.59021 | 154.45503 | 38831 ft | 538 kts | 70° |
| 2026-05-08 04:53 | 40.61635 | 154.54724 | 38833 ft | 538 kts | 70° |
| 2026-05-08 04:54 | 40.64247 | 154.63965 | 38833 ft | 539 kts | 70° |
| 2026-05-08 04:54 | 40.66853 | 154.73219 | 38837 ft | 539 kts | 70° |
| 2026-05-08 04:55 | 40.69453 | 154.82487 | 38843 ft | 539 kts | 70° |
| 2026-05-08 04:55 | 40.72048 | 154.91768 | 38846 ft | 540 kts | 70° |
| 2026-05-08 04:56 | 40.74636 | 155.01060 | 38882 ft | 540 kts | 70° |
| 2026-05-08 04:56 | 40.77218 | 155.10367 | 38885 ft | 540 kts | 70° |
| 2026-05-08 04:57 | 40.79794 | 155.19682 | 38888 ft | 541 kts | 70° |
| 2026-05-08 04:57 | 40.82365 | 155.29017 | 38894 ft | 541 kts | 70° |
| 2026-05-08 04:58 | 40.84931 | 155.38365 | 38899 ft | 541 kts | 70° |
| 2026-05-08 04:58 | 40.87489 | 155.47722 | 38897 ft | 542 kts | 70° |
| 2026-05-08 04:59 | 40.90042 | 155.57092 | 38902 ft | 542 kts | 70° |
| 2026-05-08 04:59 | 40.92592 | 155.66489 | 38910 ft | 543 kts | 70° |
| 2026-05-08 05:00 | 40.95119 | 155.75834 | 38911 ft | 543 kts | 70° |
| 2026-05-08 05:00 | 40.97659 | 155.85264 | 38914 ft | 544 kts | 70° |
| 2026-05-08 05:01 | 41.00193 | 155.94705 | 38917 ft | 544 kts | 70° |
| 2026-05-08 05:01 | 41.02719 | 156.04155 | 38921 ft | 545 kts | 70° |
| 2026-05-08 05:02 | 41.05241 | 156.13628 | 38925 ft | 545 kts | 70° |
| 2026-05-08 05:02 | 41.07759 | 156.23117 | 38929 ft | 546 kts | 70° |
| 2026-05-08 05:03 | 41.10267 | 156.32608 | 38933 ft | 546 kts | 70° |
| 2026-05-08 05:03 | 41.12770 | 156.42119 | 38935 ft | 546 kts | 70° |
| 2026-05-08 05:04 | 41.15269 | 156.51649 | 38948 ft | 547 kts | 70° |
| 2026-05-08 05:04 | 41.17762 | 156.61196 | 38956 ft | 548 kts | 71° |
| 2026-05-08 05:05 | 41.20229 | 156.70679 | 38953 ft | 547 kts | 71° |
| 2026-05-08 05:05 | 41.22708 | 156.80245 | 38956 ft | 548 kts | 71° |
| 2026-05-08 05:06 | 41.25178 | 156.89812 | 38956 ft | 548 kts | 71° |
| 2026-05-08 05:06 | 41.27644 | 156.99403 | 38962 ft | 548 kts | 71° |
| 2026-05-08 05:07 | 41.30100 | 157.08994 | 38963 ft | 548 kts | 71° |
| 2026-05-08 05:07 | 41.32556 | 157.18626 | 38966 ft | 549 kts | 71° |
| 2026-05-08 05:08 | 41.34998 | 157.28238 | 38971 ft | 549 kts | 71° |
| 2026-05-08 05:08 | 41.37437 | 157.37879 | 38971 ft | 549 kts | 71° |
| 2026-05-08 05:09 | 41.39456 | 157.45890 | 38978 ft | 549 kts | 71° |
| 2026-05-08 05:09 | 41.41880 | 157.55542 | 38977 ft | 550 kts | 71° |
| 2026-05-08 05:10 | 41.45503 | 157.70045 | 38987 ft | 550 kts | 71° |
| 2026-05-08 05:11 | 41.47896 | 157.79672 | 38986 ft | 550 kts | 71° |
| 2026-05-08 05:11 | 41.50294 | 157.89357 | 38992 ft | 551 kts | 71° |
| 2026-05-08 05:12 | 41.52688 | 157.99070 | 38994 ft | 551 kts | 71° |
| 2026-05-08 05:12 | 41.55073 | 158.08783 | 38998 ft | 551 kts | 71° |
| 2026-05-08 05:13 | 41.57455 | 158.18526 | 38999 ft | 551 kts | 71° |
| 2026-05-08 05:13 | 41.59827 | 158.28269 | 38999 ft | 552 kts | 71° |
| 2026-05-08 05:14 | 41.62193 | 158.38032 | 39003 ft | 552 kts | 71° |
| 2026-05-08 05:14 | 41.64550 | 158.47793 | 39010 ft | 551 kts | 71° |
| 2026-05-08 05:15 | 41.66897 | 158.57555 | 39010 ft | 551 kts | 71° |
| 2026-05-08 05:15 | 41.69236 | 158.67329 | 39011 ft | 551 kts | 71° |
| 2026-05-08 05:16 | 41.71552 | 158.77044 | 39013 ft | 551 kts | 71° |
| 2026-05-08 05:16 | 41.73873 | 158.86824 | 39014 ft | 551 kts | 71° |
| 2026-05-08 05:17 | 41.76183 | 158.96601 | 39016 ft | 550 kts | 71° |
| 2026-05-08 05:17 | 41.78484 | 159.06379 | 39020 ft | 550 kts | 71° |
| 2026-05-08 05:18 | 41.80778 | 159.16172 | 39021 ft | 550 kts | 71° |
| 2026-05-08 05:18 | 41.83063 | 159.25966 | 39024 ft | 550 kts | 71° |
| 2026-05-08 05:19 | 41.85340 | 159.35769 | 39026 ft | 551 kts | 71° |
| 2026-05-08 05:19 | 41.87609 | 159.45584 | 39026 ft | 551 kts | 71° |
| 2026-05-08 05:20 | 41.89871 | 159.55411 | 39025 ft | 551 kts | 71° |
| 2026-05-08 05:20 | 41.92125 | 159.65243 | 39029 ft | 551 kts | 71° |
| 2026-05-08 05:21 | 41.94368 | 159.75072 | 39033 ft | 551 kts | 71° |
| 2026-05-08 05:21 | 41.96605 | 159.84920 | 39032 ft | 551 kts | 71° |
| 2026-05-08 05:22 | 41.98815 | 159.94688 | 39032 ft | 550 kts | 71° |
| 2026-05-08 05:22 | 42.00697 | 160.04664 | 39035 ft | 552 kts | 77° |
| 2026-05-08 05:23 | 42.02195 | 160.14791 | 39034 ft | 551 kts | 78° |
| 2026-05-08 05:23 | 42.03628 | 160.24921 | 39036 ft | 551 kts | 78° |
| 2026-05-08 05:24 | 42.05059 | 160.35056 | 39037 ft | 552 kts | 78° |
| 2026-05-08 05:24 | 42.06496 | 160.45206 | 39038 ft | 552 kts | 78° |
| 2026-05-08 05:25 | 42.07928 | 160.55362 | 39039 ft | 552 kts | 78° |
| 2026-05-08 05:25 | 42.09351 | 160.65517 | 39040 ft | 552 kts | 78° |
| 2026-05-08 05:26 | 42.10754 | 160.75609 | 39042 ft | 552 kts | 78° |
| 2026-05-08 05:26 | 42.12159 | 160.85779 | 39045 ft | 552 kts | 78° |
| 2026-05-08 05:27 | 42.13554 | 160.95953 | 39046 ft | 553 kts | 78° |
| 2026-05-08 05:27 | 42.14943 | 161.06146 | 39044 ft | 553 kts | 78° |
| 2026-05-08 05:28 | 42.16321 | 161.16333 | 39047 ft | 553 kts | 78° |
| 2026-05-08 05:28 | 42.17691 | 161.26532 | 39049 ft | 553 kts | 78° |
| 2026-05-08 05:29 | 42.19053 | 161.36744 | 39049 ft | 553 kts | 78° |
| 2026-05-08 05:29 | 42.20407 | 161.46961 | 39050 ft | 553 kts | 78° |
| 2026-05-08 05:30 | 42.21750 | 161.57177 | 39046 ft | 553 kts | 78° |
| 2026-05-08 05:30 | 42.23086 | 161.67411 | 39049 ft | 553 kts | 78° |
| 2026-05-08 05:31 | 42.24412 | 161.77638 | 39052 ft | 553 kts | 78° |
| 2026-05-08 05:31 | 42.25721 | 161.87814 | 39053 ft | 553 kts | 79° |
| 2026-05-08 05:32 | 42.27027 | 161.98036 | 39049 ft | 553 kts | 79° |
| 2026-05-08 05:32 | 42.28326 | 162.08279 | 39052 ft | 553 kts | 79° |
| 2026-05-08 05:33 | 42.29614 | 162.18512 | 39053 ft | 553 kts | 79° |
| 2026-05-08 05:33 | 42.30893 | 162.28754 | 39055 ft | 553 kts | 79° |
| 2026-05-08 05:34 | 42.32164 | 162.39002 | 39058 ft | 553 kts | 79° |
| 2026-05-08 05:34 | 42.33427 | 162.49269 | 39055 ft | 553 kts | 79° |
| 2026-05-08 05:35 | 42.34676 | 162.59506 | 39054 ft | 553 kts | 79° |
| 2026-05-08 05:35 | 42.35921 | 162.69783 | 39056 ft | 553 kts | 79° |
| 2026-05-08 05:36 | 42.37157 | 162.80058 | 39059 ft | 553 kts | 79° |
| 2026-05-08 05:36 | 42.38383 | 162.90338 | 39061 ft | 553 kts | 79° |
| 2026-05-08 05:37 | 42.39590 | 163.00540 | 39060 ft | 553 kts | 79° |
| 2026-05-08 05:37 | 42.40799 | 163.10837 | 39064 ft | 554 kts | 79° |
| 2026-05-08 05:38 | 42.41997 | 163.21122 | 39061 ft | 554 kts | 79° |
| 2026-05-08 05:38 | 42.43187 | 163.31428 | 39062 ft | 554 kts | 79° |
| 2026-05-08 05:39 | 42.44368 | 163.41736 | 39061 ft | 554 kts | 79° |
| 2026-05-08 05:39 | 42.45539 | 163.52040 | 39061 ft | 554 kts | 79° |
| 2026-05-08 05:40 | 42.46700 | 163.62341 | 39067 ft | 554 kts | 79° |
| 2026-05-08 05:40 | 42.47855 | 163.72672 | 39063 ft | 554 kts | 79° |
| 2026-05-08 05:41 | 42.48992 | 163.82936 | 39063 ft | 554 kts | 79° |
| 2026-05-08 05:41 | 42.50127 | 163.93265 | 39065 ft | 554 kts | 79° |
| 2026-05-08 05:42 | 42.51253 | 164.03602 | 39066 ft | 554 kts | 79° |
| 2026-05-08 05:42 | 42.52369 | 164.13928 | 39070 ft | 554 kts | 79° |
| 2026-05-08 05:43 | 42.53475 | 164.24263 | 39067 ft | 554 kts | 79° |
| 2026-05-08 05:43 | 42.54574 | 164.34614 | 39068 ft | 554 kts | 79° |
| 2026-05-08 05:44 | 42.55663 | 164.44958 | 39067 ft | 554 kts | 79° |
| 2026-05-08 05:44 | 42.56743 | 164.55315 | 39069 ft | 554 kts | 79° |
| 2026-05-08 05:45 | 42.57813 | 164.65677 | 39070 ft | 554 kts | 79° |
| 2026-05-08 05:45 | 42.58875 | 164.76046 | 39071 ft | 554 kts | 79° |
| 2026-05-08 05:46 | 42.59926 | 164.86407 | 39076 ft | 554 kts | 79° |
| 2026-05-08 05:46 | 42.60969 | 164.96777 | 39071 ft | 554 kts | 79° |
| 2026-05-08 05:47 | 42.62002 | 165.07149 | 39073 ft | 555 kts | 79° |
| 2026-05-08 05:47 | 42.63027 | 165.17541 | 39074 ft | 555 kts | 79° |
| 2026-05-08 05:48 | 42.64035 | 165.27851 | 39077 ft | 555 kts | 79° |
| 2026-05-08 05:48 | 42.65041 | 165.38244 | 39073 ft | 555 kts | 79° |
| 2026-05-08 05:49 | 42.66040 | 165.48665 | 39081 ft | 555 kts | 79° |
| 2026-05-08 05:49 | 42.67026 | 165.59060 | 39078 ft | 555 kts | 79° |
| 2026-05-08 05:50 | 42.68005 | 165.69471 | 39078 ft | 555 kts | 79° |
| 2026-05-08 05:50 | 42.68974 | 165.79886 | 39077 ft | 555 kts | 79° |
| 2026-05-08 05:51 | 42.69927 | 165.90234 | 39081 ft | 556 kts | 79° |
| 2026-05-08 05:51 | 42.70878 | 166.00662 | 39079 ft | 556 kts | 79° |
| 2026-05-08 05:52 | 42.71820 | 166.11092 | 39072 ft | 556 kts | 79° |
| 2026-05-08 05:52 | 42.72752 | 166.21532 | 39086 ft | 556 kts | 79° |
| 2026-05-08 05:53 | 42.73674 | 166.31967 | 39088 ft | 556 kts | 79° |
| 2026-05-08 05:53 | 42.74587 | 166.42402 | 39084 ft | 556 kts | 79° |
| 2026-05-08 05:54 | 42.75492 | 166.52863 | 39084 ft | 556 kts | 79° |
| 2026-05-08 05:54 | 42.76386 | 166.63308 | 39087 ft | 556 kts | 79° |
| 2026-05-08 05:55 | 42.77271 | 166.73764 | 39085 ft | 556 kts | 79° |
| 2026-05-08 05:55 | 42.78147 | 166.84230 | 39086 ft | 556 kts | 79° |
| 2026-05-08 05:56 | 42.78868 | 166.92930 | 39083 ft | 556 kts | 79° |
| 2026-05-08 05:56 | 42.79871 | 167.05173 | 39093 ft | 556 kts | 79° |
| 2026-05-08 05:57 | 42.80713 | 167.15575 | 39092 ft | 556 kts | 79° |
| 2026-05-08 05:57 | 42.81550 | 167.26048 | 39093 ft | 556 kts | 79° |
| 2026-05-08 05:58 | 42.82245 | 167.34829 | 39094 ft | 556 kts | 79° |
| 2026-05-08 05:58 | 42.83060 | 167.45234 | 39095 ft | 557 kts | 79° |
| 2026-05-08 05:59 | 42.83871 | 167.55719 | 39089 ft | 557 kts | 79° |
| 2026-05-08 05:59 | 42.84673 | 167.66218 | 39093 ft | 557 kts | 79° |
| 2026-05-08 06:00 | 42.85465 | 167.76716 | 39092 ft | 556 kts | 79° |
| 2026-05-08 06:00 | 42.86247 | 167.87207 | 39094 ft | 556 kts | 79° |
| 2026-05-08 06:01 | 42.87021 | 167.97718 | 39095 ft | 556 kts | 79° |
| 2026-05-08 06:01 | 42.87785 | 168.08222 | 39090 ft | 556 kts | 79° |
| 2026-05-08 06:02 | 42.88534 | 168.18662 | 39095 ft | 556 kts | 80° |
| 2026-05-08 06:02 | 42.89277 | 168.29159 | 39095 ft | 556 kts | 80° |
| 2026-05-08 06:03 | 42.90012 | 168.39674 | 39099 ft | 556 kts | 80° |
| 2026-05-08 06:03 | 42.90737 | 168.50180 | 39095 ft | 556 kts | 80° |
| 2026-05-08 06:04 | 42.91452 | 168.60698 | 39099 ft | 557 kts | 80° |
| 2026-05-08 06:04 | 42.92158 | 168.71217 | 39100 ft | 557 kts | 80° |
| 2026-05-08 06:05 | 42.92855 | 168.81745 | 39098 ft | 557 kts | 80° |
| 2026-05-08 06:05 | 42.93542 | 168.92274 | 39091 ft | 557 kts | 80° |
| 2026-05-08 06:06 | 42.94214 | 169.02735 | 39099 ft | 557 kts | 80° |
| 2026-05-08 06:06 | 42.94882 | 169.13264 | 39093 ft | 557 kts | 80° |
| 2026-05-08 06:07 | 42.95540 | 169.23801 | 39102 ft | 557 kts | 80° |
| 2026-05-08 06:07 | 42.96188 | 169.34335 | 39095 ft | 557 kts | 80° |
| 2026-05-08 06:08 | 42.96827 | 169.44873 | 39098 ft | 557 kts | 80° |
| 2026-05-08 06:08 | 42.97456 | 169.55418 | 39097 ft | 557 kts | 80° |
| 2026-05-08 06:09 | 42.98074 | 169.65951 | 39101 ft | 557 kts | 80° |
| 2026-05-08 06:09 | 42.98684 | 169.76494 | 39100 ft | 557 kts | 80° |
| 2026-05-08 06:10 | 42.99280 | 169.86976 | 39103 ft | 557 kts | 80° |
| 2026-05-08 06:10 | 42.99870 | 169.97526 | 39103 ft | 557 kts | 81° |
| 2026-05-08 06:11 | 43.00413 | 170.08074 | 39100 ft | 557 kts | 81° |
| 2026-05-08 06:11 | 43.00842 | 170.18670 | 39103 ft | 558 kts | 82° |
| 2026-05-08 06:12 | 43.01254 | 170.29261 | 39107 ft | 558 kts | 82° |
| 2026-05-08 06:12 | 43.01673 | 170.39840 | 39110 ft | 558 kts | 82° |
| 2026-05-08 06:13 | 43.02093 | 170.50423 | 39108 ft | 558 kts | 82° |
| 2026-05-08 06:13 | 43.02506 | 170.61017 | 39108 ft | 558 kts | 82° |
| 2026-05-08 06:14 | 43.02905 | 170.71540 | 39108 ft | 558 kts | 82° |
| 2026-05-08 06:14 | 43.03295 | 170.82125 | 39109 ft | 558 kts | 82° |
| 2026-05-08 06:15 | 43.03677 | 170.92725 | 39111 ft | 558 kts | 82° |
| 2026-05-08 06:15 | 43.04048 | 171.03332 | 39111 ft | 558 kts | 82° |
| 2026-05-08 06:16 | 43.04410 | 171.13937 | 39113 ft | 558 kts | 82° |
| 2026-05-08 06:16 | 43.04763 | 171.24552 | 39110 ft | 559 kts | 82° |
| 2026-05-08 06:17 | 43.05272 | 171.40460 | 39115 ft | 559 kts | 82° |
| 2026-05-08 06:17 | 43.05600 | 171.51082 | 39114 ft | 559 kts | 82° |
| 2026-05-08 06:18 | 43.05918 | 171.61696 | 39114 ft | 559 kts | 82° |
| 2026-05-08 06:18 | 43.06225 | 171.72261 | 39115 ft | 559 kts | 82° |
| 2026-05-08 06:19 | 43.06524 | 171.82889 | 39116 ft | 559 kts | 82° |
| 2026-05-08 06:19 | 43.06812 | 171.93521 | 39117 ft | 560 kts | 82° |
| 2026-05-08 06:20 | 43.07091 | 172.04154 | 39114 ft | 560 kts | 82° |
| 2026-05-08 06:20 | 43.07362 | 172.14863 | 39121 ft | 560 kts | 82° |
| 2026-05-08 06:21 | 43.07622 | 172.25507 | 39121 ft | 560 kts | 82° |
| 2026-05-08 06:21 | 43.07870 | 172.36085 | 39119 ft | 560 kts | 82° |
| 2026-05-08 06:22 | 43.08110 | 172.46727 | 39124 ft | 560 kts | 82° |
| 2026-05-08 06:22 | 43.08341 | 172.57374 | 39122 ft | 560 kts | 82° |
| 2026-05-08 06:23 | 43.08561 | 172.68031 | 39124 ft | 560 kts | 82° |
| 2026-05-08 06:23 | 43.08771 | 172.78694 | 39124 ft | 560 kts | 82° |
| 2026-05-08 06:24 | 43.08972 | 172.89345 | 39126 ft | 560 kts | 82° |
| 2026-05-08 06:24 | 43.09162 | 173.00010 | 39127 ft | 560 kts | 82° |
| 2026-05-08 06:25 | 43.09342 | 173.10617 | 39127 ft | 560 kts | 82° |
| 2026-05-08 06:25 | 43.09512 | 173.21278 | 39129 ft | 560 kts | 82° |
| 2026-05-08 06:26 | 43.09673 | 173.31934 | 39130 ft | 560 kts | 82° |
| 2026-05-08 06:26 | 43.09824 | 173.42605 | 39132 ft | 560 kts | 82° |
| 2026-05-08 06:27 | 43.09965 | 173.53259 | 39122 ft | 560 kts | 82° |
| 2026-05-08 06:27 | 43.10096 | 173.63919 | 39144 ft | 561 kts | 82° |
| 2026-05-08 06:28 | 43.10218 | 173.74593 | 39140 ft | 561 kts | 82° |
| 2026-05-08 06:28 | 43.10330 | 173.85267 | 39135 ft | 561 kts | 82° |
| 2026-05-08 06:29 | 43.10431 | 173.95938 | 39142 ft | 561 kts | 82° |
| 2026-05-08 06:29 | 43.10523 | 174.06547 | 39138 ft | 561 kts | 82° |
| 2026-05-08 06:30 | 43.10605 | 174.17296 | 39137 ft | 562 kts | 82° |
| 2026-05-08 06:30 | 43.10676 | 174.27919 | 39135 ft | 562 kts | 82° |
| 2026-05-08 06:31 | 43.10738 | 174.38613 | 39137 ft | 562 kts | 82° |
| 2026-05-08 06:31 | 43.10791 | 174.49303 | 39137 ft | 562 kts | 82° |
| 2026-05-08 06:32 | 43.10833 | 174.59995 | 39141 ft | 562 kts | 82° |
| 2026-05-08 06:32 | 43.10865 | 174.70709 | 39139 ft | 562 kts | 82° |
| 2026-05-08 06:33 | 43.10887 | 174.81420 | 39139 ft | 563 kts | 82° |
| 2026-05-08 06:33 | 43.10900 | 174.92137 | 39141 ft | 563 kts | 82° |
| 2026-05-08 06:34 | 43.10902 | 175.02862 | 39140 ft | 563 kts | 82° |
| 2026-05-08 06:34 | 43.10894 | 175.13527 | 39141 ft | 564 kts | 82° |
| 2026-05-08 06:35 | 43.10876 | 175.24260 | 39139 ft | 564 kts | 82° |
| 2026-05-08 06:35 | 43.10848 | 175.34999 | 39135 ft | 564 kts | 82° |
| 2026-05-08 06:36 | 43.10811 | 175.45732 | 39138 ft | 564 kts | 82° |
| 2026-05-08 06:36 | 43.10763 | 175.56465 | 39145 ft | 564 kts | 82° |
| 2026-05-08 06:37 | 43.10705 | 175.67206 | 39147 ft | 564 kts | 82° |
| 2026-05-08 06:37 | 43.10637 | 175.77956 | 39147 ft | 564 kts | 83° |
| 2026-05-08 06:38 | 43.10559 | 175.88693 | 39144 ft | 564 kts | 83° |
| 2026-05-08 06:38 | 43.10471 | 175.99419 | 39148 ft | 564 kts | 83° |
| 2026-05-08 06:39 | 43.10373 | 176.10162 | 39146 ft | 564 kts | 83° |
| 2026-05-08 06:39 | 43.10265 | 176.20831 | 39149 ft | 564 kts | 83° |
| 2026-05-08 06:40 | 43.10147 | 176.31565 | 39152 ft | 564 kts | 83° |
| 2026-05-08 06:40 | 43.10020 | 176.42262 | 39149 ft | 563 kts | 83° |
| 2026-05-08 06:41 | 43.09882 | 176.52967 | 39147 ft | 563 kts | 83° |
| 2026-05-08 06:41 | 43.09734 | 176.63680 | 39148 ft | 563 kts | 83° |